Time;durP1;ratioP1;P1;durP2;ratioP2;P2;SDS_P1;SDS_P2;PMS_P1;PMS_P2;Temp;Humidity;BMP_temperature;BMP_pressure;BME280_temperature;BME280_humidity;BME280_pressure;Samples;Min_cycle;Max_cycle;Signal;HPM_P1;HPM_P2
2022/05/25 00:01:08;;;;;;;9.98;4.03;;;;;;;17.23;65.91;99351.19;7710112;32;37842;-75
2022/05/25 00:05:24;;;;;;;7.60;4.05;;;;;;;17.60;64.43;99355.16;7695450;32;35622;-77
2022/05/25 00:09:41;;;;;;;10.35;4.00;;;;;;;17.44;65.70;99362.34;7685428;32;39334;-78
2022/05/25 00:13:57;;;;;;;7.55;4.30;;;;;;;17.40;65.56;99361.34;7684623;32;40681;-78
2022/05/25 00:18:13;;;;;;;7.03;4.10;;;;;;;17.59;65.55;99386.63;7684572;32;39015;-77
2022/05/25 00:22:50;;;;;;;8.48;3.62;;;;;;;17.72;65.00;99383.97;7684567;32;37994;-77
2022/05/25 00:27:07;;;;;;;9.35;3.92;;;;;;;18.10;63.89;99361.13;7710971;32;39339;-77
2022/05/25 00:31:23;;;;;;;6.80;4.03;;;;;;;17.82;64.77;99369.84;7710423;32;39860;-77
2022/05/25 00:35:41;;;;;;;10.15;4.00;;;;;;;17.67;65.27;99398.75;7711169;32;38411;-77
2022/05/25 00:39:57;;;;;;;6.95;3.85;;;;;;;18.04;64.13;99376.25;7689886;32;37116;-77
2022/05/25 00:44:13;;;;;;;7.53;3.92;;;;;;;18.07;63.77;99392.13;7684454;32;40068;-77
2022/05/25 00:48:37;;;;;;;6.68;3.78;;;;;;;17.72;65.12;99420.63;7684314;32;41222;-76
2022/05/25 00:52:53;;;;;;;6.00;3.95;;;;;;;18.10;64.13;99408.84;7683293;32;37805;-77
2022/05/25 00:57:18;;;;;;;6.37;3.55;;;;;;;17.99;63.69;99369.00;7691617;32;36865;-77
2022/05/25 01:01:34;;;;;;;8.20;3.92;;;;;;;17.73;64.68;99400.19;7684281;32;39418;-77
2022/05/25 01:05:56;;;;;;;7.00;4.25;;;;;;;17.75;65.03;99388.84;7682863;32;39990;-77
2022/05/25 01:10:32;;;;;;;7.20;3.80;;;;;;;17.46;65.59;99404.16;7705983;32;37959;-77
2022/05/25 01:15:13;;;;;;;9.63;3.90;;;;;;;17.38;66.16;99388.44;7710091;32;37349;-78
2022/05/25 01:20:03;;;;;;;8.73;4.50;;;;;;;17.62;65.56;99383.19;7710344;32;40550;-77
2022/05/25 01:24:31;;;;;;;7.32;4.07;;;;;;;17.31;66.54;99390.87;7703369;32;39992;-77
2022/05/25 01:28:56;;;;;;;8.15;3.37;;;;;;;17.31;66.50;99388.94;7683528;32;39095;-77
2022/05/25 01:33:29;;;;;;;6.22;3.65;;;;;;;17.61;65.42;99373.31;7683151;32;37784;-78
2022/05/25 01:38:11;;;;;;;5.97;3.50;;;;;;;17.43;66.19;99366.22;7688856;32;39337;-77
2022/05/25 01:42:55;;;;;;;6.90;3.87;;;;;;;17.49;65.69;99373.19;7709973;32;40699;-77
2022/05/25 01:47:11;;;;;;;6.45;3.97;;;;;;;17.33;66.03;99372.88;7709936;32;37681;-77
2022/05/25 01:51:41;;;;;;;8.18;3.87;;;;;;;17.22;66.42;99379.88;7709626;32;37060;-77
2022/05/25 01:56:00;;;;;;;7.15;3.80;;;;;;;17.21;67.22;99379.06;7687580;32;40020;-77
2022/05/25 02:00:28;;;;;;;8.40;4.43;;;;;;;17.15;66.88;99394.13;7682745;32;40850;-77
2022/05/25 02:04:47;;;;;;;8.13;4.68;;;;;;;17.27;67.08;99380.50;7682703;32;37995;-78
2022/05/25 02:09:38;;;;;;;7.90;4.10;;;;;;;17.34;66.61;99379.22;7691460;32;35988;-77
2022/05/25 02:14:00;;;;;;;7.20;4.10;;;;;;;17.36;66.16;99382.44;7678380;32;39143;-77
2022/05/25 02:18:22;;;;;;;6.00;4.00;;;;;;;17.47;65.85;99372.69;7682381;32;40818;-77
2022/05/25 02:22:44;;;;;;;5.65;4.00;;;;;;;17.33;66.31;99372.06;7682380;32;37970;-76
2022/05/25 02:27:09;;;;;;;6.47;3.87;;;;;;;17.33;66.15;99391.34;7685466;32;36969;-77
2022/05/25 02:31:29;;;;;;;6.78;4.18;;;;;;;17.29;66.74;99376.63;7685935;32;39163;-78
2022/05/25 02:35:46;;;;;;;6.43;3.92;;;;;;;17.32;66.46;99370.47;7684728;32;40784;-78
2022/05/25 02:40:06;;;;;;;8.93;4.22;;;;;;;17.39;65.51;99355.03;7705073;32;37986;-77
2022/05/25 02:44:23;;;;;;;7.75;3.65;;;;;;;17.36;65.39;99354.91;7711444;32;37227;-78
2022/05/25 02:48:39;;;;;;;11.00;4.12;;;;;;;17.46;65.09;99354.53;7712385;32;39092;-78
2022/05/25 02:52:56;;;;;;;9.88;4.30;;;;;;;17.27;66.05;99363.19;7710748;32;40784;-77
2022/05/25 02:57:12;;;;;;;7.97;4.07;;;;;;;17.32;66.86;99371.28;7712121;32;38040;-77
2022/05/25 03:01:29;;;;;;;6.68;3.50;;;;;;;17.26;67.21;99345.03;7712350;32;37858;-77
2022/05/25 03:05:45;;;;;;;6.20;3.70;;;;;;;17.47;65.30;99356.16;7712154;32;40016;-78
2022/05/25 03:10:01;;;;;;;7.37;4.45;;;;;;;17.51;65.16;99368.16;7710604;32;40794;-78
2022/05/25 03:14:17;;;;;;;7.40;4.05;;;;;;;17.25;67.00;99371.78;7711951;32;37639;-78
2022/05/25 03:18:34;;;;;;;6.87;3.92;;;;;;;17.54;66.28;99352.87;7688825;32;37593;-78
2022/05/25 03:22:50;;;;;;;6.45;4.00;;;;;;;17.52;66.44;99361.47;7686482;32;39438;-77
2022/05/25 03:27:06;;;;;;;6.90;4.15;;;;;;;17.49;65.68;99361.34;7711733;32;41631;-78
2022/05/25 03:31:22;;;;;;;6.22;3.92;;;;;;;17.44;66.27;99365.09;7711650;32;37963;-77
2022/05/25 03:35:38;;;;;;;7.30;4.47;;;;;;;17.48;66.49;99368.81;7685305;32;37084;-78
2022/05/25 03:39:56;;;;;;;9.60;4.45;;;;;;;17.52;66.42;99368.94;7704680;32;40045;-78
2022/05/25 03:44:13;;;;;;;7.53;4.05;;;;;;;17.48;66.50;99368.81;7711645;32;39889;-78
2022/05/25 03:48:29;;;;;;;6.40;3.90;;;;;;;17.74;65.11;99370.66;7711647;32;38506;-78
2022/05/25 03:52:46;;;;;;;7.80;4.05;;;;;;;17.50;65.97;99377.53;7709758;32;37073;-78
2022/05/25 03:57:03;;;;;;;5.70;4.35;;;;;;;17.52;65.83;99391.78;7690271;32;38229;-78
2022/05/25 04:01:19;;;;;;;5.55;3.55;;;;;;;17.64;65.23;99402.97;7684882;32;39888;-78
2022/05/25 04:05:35;;;;;;;10.38;4.00;;;;;;;17.64;65.36;99396.63;7684733;32;38586;-78
2022/05/25 04:09:51;;;;;;;5.65;3.65;;;;;;;17.69;64.95;99390.94;7704561;32;37297;-78
2022/05/25 04:14:08;;;;;;;6.10;3.90;;;;;;;17.56;65.41;99398.28;7711529;32;40020;-78
2022/05/25 04:18:24;;;;;;;6.32;4.00;;;;;;;17.68;64.78;99394.84;7711285;32;40199;-78
2022/05/25 04:22:40;;;;;;;7.82;3.97;;;;;;;17.39;66.10;99387.31;7709858;32;37929;-78
2022/05/25 04:26:59;;;;;;;7.62;3.90;;;;;;;17.70;65.31;99394.53;7710041;32;37810;-78
2022/05/25 04:31:16;;;;;;;11.57;3.95;;;;;;;17.88;64.56;99398.06;7711213;32;39098;-78
2022/05/25 04:35:32;;;;;;;6.15;3.80;;;;;;;17.76;65.33;99390.44;7711118;32;40666;-78
2022/05/25 04:39:48;;;;;;;5.75;3.53;;;;;;;17.76;64.64;99395.94;7689824;32;38031;-78
2022/05/25 04:44:05;;;;;;;5.75;4.18;;;;;;;17.84;64.70;99401.44;7684437;32;37248;-78
2022/05/25 04:48:25;;;;;;;6.45;4.22;;;;;;;17.77;65.08;99392.88;7704708;32;39134;-78
2022/05/25 04:52:42;;;;;;;6.35;3.90;;;;;;;17.86;65.34;99384.59;7708601;32;40029;-78
2022/05/25 05:01:32;;;;;;;7.40;3.95;;;;;;;18.03;64.37;99400.28;7684034;32;37835;-78
2022/05/25 05:05:49;;;;;;;5.78;4.05;;;;;;;18.07;64.75;99405.94;7683950;32;39375;-78
2022/05/25 05:10:06;;;;;;;6.25;3.65;;;;;;;18.05;64.55;99394.44;7704862;32;40734;-79
2022/05/25 05:14:22;;;;;;;8.13;4.32;;;;;;;18.03;64.62;99389.25;7710157;32;38707;-78
2022/05/25 05:18:38;;;;;;;7.87;4.07;;;;;;;18.25;63.94;99404.72;7710216;32;37880;-78
2022/05/25 05:22:54;;;;;;;6.22;3.50;;;;;;;18.20;63.98;99416.75;7707093;32;37188;-78
2022/05/25 05:27:11;;;;;;;5.43;3.75;;;;;;;18.29;64.13;99413.94;7703638;32;39945;-78
2022/05/25 05:31:27;;;;;;;8.95;3.60;;;;;;;18.21;64.04;99417.53;7708397;32;37814;-78
2022/05/25 05:35:45;;;;;;;10.15;3.87;;;;;;;18.27;64.50;99429.22;7709779;32;37357;-78
2022/05/25 05:40:04;;;;;;;6.32;3.55;;;;;;;18.47;63.77;99435.91;7691117;32;38302;-77
2022/05/25 05:44:24;;;;;;;7.43;4.00;;;;;;;18.57;63.84;99446.56;7681722;32;39955;-76
2022/05/25 05:48:41;;;;;;;5.85;3.67;;;;;;;18.38;64.45;99447.81;7681566;32;38751;-77
2022/05/25 05:52:57;;;;;;;9.73;4.50;;;;;;;18.71;63.04;99447.16;7682096;32;37074;-76
2022/05/25 05:57:13;;;;;;;7.70;3.92;;;;;;;18.82;62.17;99457.81;7682496;32;39430;-78
2022/05/25 06:01:29;;;;;;;7.37;3.65;;;;;;;18.80;62.24;99451.78;7680915;32;41272;-77
2022/05/25 06:05:45;;;;;;;9.88;3.85;;;;;;;18.89;62.07;99442.34;7684396;32;37704;-77
2022/05/25 06:10:03;;;;;;;10.65;3.80;;;;;;;18.98;62.22;99441.47;7686543;32;36731;-78
2022/05/25 06:14:19;;;;;;;5.43;3.78;;;;;;;19.05;62.57;99442.53;7684625;32;39317;-77
2022/05/25 06:23:10;;;;;;;5.22;3.83;;;;;;;19.10;61.95;99456.16;7683374;32;38785;-78
2022/05/25 06:27:26;;;;;;;6.12;3.40;;;;;;;19.57;61.22;99448.75;7682871;32;37023;-78
2022/05/25 06:31:42;;;;;;;5.80;3.65;;;;;;;19.44;61.40;99445.16;7683445;32;39762;-77
2022/05/25 06:36:16;;;;;;;6.72;4.05;;;;;;;19.63;60.68;99452.94;7685591;32;40995;-85
2022/05/25 06:40:32;;;;;;;6.72;3.80;;;;;;;20.07;59.59;99439.44;7704844;32;37859;-85
2022/05/25 06:44:48;;;;;;;11.82;4.03;;;;;;;20.69;59.56;99431.19;7685406;32;37120;-77
2022/05/25 06:49:05;;;;;;;6.95;3.50;;;;;;;20.67;58.95;99433.50;7695798;32;39976;-73
2022/05/25 06:53:21;;;;;;;6.30;3.75;;;;;;;21.01;56.01;99438.50;7692077;32;39998;-74
2022/05/25 06:57:37;;;;;;;8.15;3.12;;;;;;;21.03;56.17;99445.66;7711863;32;38613;-74
2022/05/25 07:01:53;;;;;;;7.32;3.75;;;;;;;21.41;54.75;99444.37;7711928;32;37154;-73
2022/05/25 07:06:11;;;;;;;12.18;3.37;;;;;;;21.68;54.69;99451.91;7706381;32;40077;-81
2022/05/25 07:10:27;;;;;;;6.85;3.40;;;;;;;21.81;54.93;99454.59;7694250;32;40638;-81
2022/05/25 07:14:43;;;;;;;4.47;3.30;;;;;;;21.86;52.69;99460.69;7700509;32;39279;-80
2022/05/25 07:18:59;;;;;;;8.13;2.95;;;;;;;21.86;52.64;99462.66;7711818;32;37693;-82
2022/05/25 07:23:15;;;;;;;14.70;3.53;;;;;;;21.92;53.00;99470.38;7711756;32;39276;-81
2022/05/25 07:27:31;;;;;;;6.25;3.35;;;;;;;21.95;54.33;99460.53;7690717;32;40629;-81
2022/05/25 07:31:56;;;;;;;5.90;3.10;;;;;;;22.34;54.46;99469.09;7684722;32;37869;-81
2022/05/25 07:36:12;;;;;;;7.40;3.40;;;;;;;22.41;54.95;99477.59;7685545;32;37010;-81
2022/05/25 07:40:38;;;;;;;7.35;3.58;;;;;;;22.58;51.89;99483.94;7684782;32;39612;-82
2022/05/25 07:44:59;;;;;;;4.97;3.25;;;;;;;22.11;53.62;99485.50;7687991;32;40135;-77
2022/05/25 07:49:16;;;;;;;4.95;3.30;;;;;;;22.74;52.84;99481.94;7694320;32;37231;-79
2022/05/25 07:58:06;;;;;;;6.25;3.35;;;;;;;23.24;51.91;99473.94;7704672;32;39294;-81
2022/05/25 08:07:01;;;;;;;5.62;3.30;;;;;;;23.53;50.07;99472.53;7684675;32;37825;-84
2022/05/25 08:11:20;;;;;;;8.32;3.33;;;;;;;23.81;51.44;99460.37;7696066;32;37598;-83
2022/05/25 08:15:42;;;;;;;5.87;3.58;;;;;;;23.55;48.96;99475.75;7696634;32;39367;-82
2022/05/25 08:19:59;;;;;;;9.38;3.80;;;;;;;23.25;49.98;99470.78;7703207;32;40756;-83
2022/05/25 08:24:15;;;;;;;8.43;3.60;;;;;;;23.91;47.25;99464.53;7696069;32;38596;-83
2022/05/25 08:28:32;;;;;;;7.12;3.50;;;;;;;24.19;48.44;99467.03;7704608;32;38105;-84
2022/05/25 08:32:48;;;;;;;5.87;3.28;;;;;;;24.36;48.02;99460.16;7700886;32;39457;-84
2022/05/25 08:37:04;;;;;;;5.55;3.17;;;;;;;24.72;47.31;99453.19;7705594;32;39964;-84
2022/05/25 08:41:30;;;;;;;6.40;3.20;;;;;;;24.96;47.49;99456.69;7699059;32;38609;-83
2022/05/25 08:45:50;;;;;;;8.30;4.05;;;;;;;25.07;48.01;99443.69;7693042;32;37095;-83
2022/05/25 08:50:07;;;;;;;7.40;4.03;;;;;;;25.49;48.05;99456.59;7710567;32;40278;-83
2022/05/25 08:54:25;;;;;;;10.45;3.65;;;;;;;25.51;48.97;99458.19;7709583;32;41345;-77
2022/05/25 08:58:59;;;;;;;6.45;3.37;;;;;;;25.78;48.37;99444.94;7696451;32;37943;-76
2022/05/25 09:03:37;;;;;;;6.62;3.15;;;;;;;25.76;46.00;99459.28;7683982;32;37003;-81
2022/05/25 09:08:12;;;;;;;7.43;3.55;;;;;;;26.00;44.70;99457.97;7688379;32;39281;-82
2022/05/25 09:12:33;;;;;;;4.97;3.17;;;;;;;26.04;46.40;99458.00;7683629;32;39992;-75
2022/05/25 09:16:51;;;;;;;6.85;3.55;;;;;;;26.06;44.75;99466.81;7705856;32;37620;-78
2022/05/25 09:21:08;;;;;;;5.32;2.95;;;;;;;26.01;46.35;99464.38;7692113;32;37012;-80
2022/05/25 09:25:25;;;;;;;5.12;3.58;;;;;;;26.13;44.87;99475.25;7693914;32;40135;-79
2022/05/25 09:29:41;;;;;;;4.32;3.28;;;;;;;25.64;44.59;99473.50;7683200;32;40784;-79
2022/05/25 09:34:03;;;;;;;8.60;3.80;;;;;;;25.59;46.19;99471.06;7692694;32;38270;-79
2022/05/25 09:38:44;;;;;;;6.12;3.55;;;;;;;25.33;45.99;99481.09;7684615;32;38560;-79
2022/05/25 09:43:04;;;;;;;6.20;3.33;;;;;;;25.50;45.26;99479.72;7686021;32;38391;-77
2022/05/25 09:47:38;;;;;;;9.80;3.30;;;;;;;25.42;46.17;99473.28;7686036;32;40026;-76
2022/05/25 09:51:55;;;;;;;6.82;3.65;;;;;;;25.40;44.87;99470.03;7687119;32;38111;-79
2022/05/25 09:56:32;;;;;;;5.90;3.95;;;;;;;25.39;46.02;99476.81;7684862;32;38126;-80
2022/05/25 10:01:13;;;;;;;8.48;3.45;;;;;;;25.21;45.41;99484.13;7685890;32;40000;-79
2022/05/25 10:05:34;;;;;;;6.12;3.80;;;;;;;24.65;46.98;99482.94;7679766;32;40794;-79
2022/05/25 10:09:52;;;;;;;5.43;3.37;;;;;;;23.89;50.72;99478.03;7684302;32;36721;-79
2022/05/25 10:14:16;;;;;;;7.00;3.75;;;;;;;24.58;51.25;99477.22;7682492;32;36172;-79
2022/05/25 10:18:37;;;;;;;9.07;4.53;;;;;;;24.17;50.74;99489.66;7695703;32;39109;-79
2022/05/25 10:23:06;;;;;;;10.57;4.03;;;;;;;24.08;49.04;99485.53;7706953;32;39990;-79
2022/05/25 10:27:32;;;;;;;6.78;3.87;;;;;;;23.65;50.07;99491.06;7711435;32;37858;-80
2022/05/25 10:36:48;;;;;;;9.70;3.80;;;;;;;23.11;52.48;99491.91;7712478;32;39273;-81
2022/05/25 10:45:41;;;;;;;10.45;4.43;;;;;;;23.45;49.99;99495.81;7693974;32;39067;-81
2022/05/25 10:49:57;;;;;;;7.00;4.50;;;;;;;23.38;49.55;99492.91;7684978;32;36282;-80
2022/05/25 10:59:46;;;;;;;6.53;3.97;;;;;;;23.67;50.17;99504.63;7681814;32;40473;-80
2022/05/25 11:04:41;;;;;;;6.70;4.35;;;;;;;23.91;49.47;99509.88;7669151;32;37772;-80
2022/05/25 11:09:09;;;;;;;8.18;4.75;;;;;;;23.79;48.82;99512.81;7684235;32;38276;-80
2022/05/25 11:13:31;;;;;;;8.98;4.57;;;;;;;23.80;48.97;99517.19;7685105;32;40168;-80
2022/05/25 11:17:47;;;;;;;12.25;4.75;;;;;;;23.59;50.40;99525.91;7685177;32;39995;-81
2022/05/25 11:22:24;;;;;;;9.45;4.55;;;;;;;24.28;49.70;99522.47;7684966;32;38127;-81
2022/05/25 11:26:46;;;;;;;7.32;5.32;;;;;;;23.73;49.46;99525.38;7685165;32;37534;-81
2022/05/25 11:31:08;;;;;;;6.47;4.62;;;;;;;23.84;50.34;99529.22;7685008;32;39507;-81
2022/05/25 11:35:40;;;;;;;9.20;5.18;;;;;;;23.88;49.27;99529.31;7684897;32;39890;-81
2022/05/25 11:40:05;;;;;;;9.48;5.20;;;;;;;24.05;49.86;99528.84;7684901;32;37976;-81
2022/05/25 11:44:38;;;;;;;9.73;5.20;;;;;;;24.71;48.67;99515.66;7684532;32;36859;-81
2022/05/25 11:48:57;;;;;;;7.47;4.50;;;;;;;25.56;45.22;99510.88;7684968;32;40132;-81
2022/05/25 11:53:39;;;;;;;9.57;4.87;;;;;;;25.73;44.92;99521.44;7706046;32;40078;-82
2022/05/25 11:58:23;;;;;;;8.60;4.53;;;;;;;26.31;45.18;99505.34;7693030;32;37938;-81
2022/05/25 12:02:55;;;;;;;8.20;4.75;;;;;;;26.70;45.46;99516.06;7709881;32;38219;-83
2022/05/25 12:07:31;;;;;;;8.48;4.97;;;;;;;26.37;43.93;99520.53;7709443;32;40066;-82
2022/05/25 12:12:01;;;;;;;19.25;5.12;;;;;;;26.57;44.83;99507.16;7692796;32;39713;-82
2022/05/25 12:16:20;;;;;;;10.18;5.30;;;;;;;26.54;43.96;99519.09;7703284;32;37771;-81
2022/05/25 12:20:55;;;;;;;12.40;4.72;;;;;;;25.94;44.52;99522.88;7709885;32;37123;-81
2022/05/25 12:25:15;;;;;;;9.55;5.15;;;;;;;26.14;44.98;99517.94;7705989;32;39161;-80
2022/05/25 12:29:36;;;;;;;9.57;5.35;;;;;;;25.92;44.93;99522.47;7708863;32;41057;-80
2022/05/25 12:33:53;;;;;;;10.13;5.28;;;;;;;25.97;46.52;99520.16;7709979;32;38311;-81
2022/05/25 12:38:10;;;;;;;8.40;4.90;;;;;;;26.09;44.87;99509.91;7709237;32;38378;-81
2022/05/25 12:42:26;;;;;;;7.85;4.80;;;;;;;26.16;44.27;99516.34;7697445;32;39504;-82
2022/05/25 12:51:43;;;;;;;8.90;5.43;;;;;;;25.96;45.02;99512.97;7668594;32;475296;-82
2022/05/25 12:56:15;;;;;;;9.07;5.60;;;;;;;26.02;44.59;99500.25;7687995;32;37331;-82
2022/05/25 13:00:35;;;;;;;9.55;6.03;;;;;;;26.74;43.75;99500.91;7697810;32;39413;-83
2022/05/25 13:04:54;;;;;;;8.85;5.80;;;;;;;25.92;43.76;99500.94;7699318;32;39925;-82
2022/05/25 13:09:11;;;;;;;8.13;5.40;;;;;;;26.01;44.40;99497.87;7710334;32;38739;-82
2022/05/25 13:13:48;;;;;;;9.80;5.80;;;;;;;26.19;44.09;99487.66;7708134;32;36980;-82
2022/05/25 13:18:07;;;;;;;9.63;5.68;;;;;;;26.55;43.78;99499.16;7710038;32;40212;-83
2022/05/25 13:22:27;;;;;;;9.95;6.35;;;;;;;27.40;41.81;99494.53;7710098;32;39699;-82
2022/05/25 13:26:58;;;;;;;10.63;5.62;;;;;;;27.20;40.25;99488.41;7701326;32;37783;-80
2022/05/25 13:31:20;;;;;;;10.63;6.37;;;;;;;28.42;38.55;99487.97;7684505;32;37594;-81
2022/05/25 13:35:46;;;;;;;12.25;5.80;;;;;;;28.97;39.04;99489.53;7705358;32;40156;-82
2022/05/25 13:40:02;;;;;;;7.25;5.45;;;;;;;29.02;36.20;99491.94;7706484;32;39955;-82
2022/05/25 13:44:25;;;;;;;6.72;5.15;;;;;;;28.39;37.78;99489.59;7709238;32;38115;-82
2022/05/25 13:48:52;;;;;;;;;;;;;;;28.50;36.60;99500.00;7708480;32;37699;-82
2022/05/25 13:53:12;;;;;;;9.82;4.68;;;;;;;28.32;39.14;99500.81;7709330;32;39539;-81
2022/05/25 13:57:38;;;;;;;7.43;4.93;;;;;;;28.90;39.11;99492.38;7708804;32;40761;-82
2022/05/25 14:02:18;;;;;;;7.57;4.65;;;;;;;28.87;38.32;99502.38;7708825;32;38265;-82
2022/05/25 14:06:43;;;;;;;7.75;5.40;;;;;;;28.25;37.75;99506.37;7708759;32;37796;-82
2022/05/25 14:11:12;;;;;;;8.02;5.32;;;;;;;27.52;38.88;99510.16;7707354;32;39851;-82
2022/05/25 14:15:29;;;;;;;8.15;5.50;;;;;;;27.65;40.43;99513.44;7708856;32;40975;-82
2022/05/25 14:19:48;;;;;;;9.02;5.60;;;;;;;27.58;39.60;99511.41;7707120;32;37959;-82
2022/05/25 14:24:12;;;;;;;7.70;5.25;;;;;;;27.64;39.91;99504.22;7710386;32;38375;-81
2022/05/25 14:28:39;;;;;;;8.93;5.10;;;;;;;27.96;38.74;99506.34;7711399;32;40065;-82
2022/05/25 14:33:08;;;;;;;9.48;5.20;;;;;;;28.84;38.12;99506.00;7712457;32;39910;-82
2022/05/25 14:37:27;;;;;;;10.60;4.65;;;;;;;28.99;37.15;99509.56;7712171;32;38615;-82
2022/05/25 14:42:07;;;;;;;8.85;5.37;;;;;;;28.76;36.50;99510.81;7712274;32;37308;-78
2022/05/25 14:46:29;;;;;;;10.52;7.12;;;;;;;28.60;37.82;99524.47;7712340;32;39592;-76
2022/05/25 14:50:57;;;;;;;8.02;5.62;;;;;;;26.69;39.85;99526.44;7710849;32;40261;-76
2022/05/25 14:55:18;;;;;;;11.15;5.70;;;;;;;26.59;42.07;99530.72;7709835;32;37882;-76
2022/05/25 14:59:43;;;;;;;8.82;6.05;;;;;;;26.76;42.21;99525.69;7709229;32;37041;-76
2022/05/25 15:04:02;;;;;;;11.55;6.30;;;;;;;26.28;42.58;99540.44;7708316;32;39705;-76
2022/05/25 15:08:31;;;;;;;17.12;6.25;;;;;;;26.13;43.20;99538.66;7709657;32;40935;-78
2022/05/25 15:12:47;;;;;;;12.15;6.30;;;;;;;25.74;44.92;99553.00;7711776;32;37831;-77
2022/05/25 15:21:49;;;;;;;9.38;6.95;;;;;;;25.54;45.36;99566.28;7711830;32;39529;-78
2022/05/25 15:27:00;;;;;;;11.60;6.62;;;;;;;24.85;46.84;99576.44;7710317;32;40149;-80
2022/05/25 15:31:18;;;;;;;8.77;6.32;;;;;;;24.16;47.83;99585.53;7709512;32;38650;-80
2022/05/25 15:35:34;;;;;;;6.10;2.87;;;;;;;24.43;47.72;99584.81;7709326;32;36115;-80
2022/05/25 15:39:51;;;;;;;2.03;1.73;;;;;;;23.62;48.02;99587.19;7710435;32;40221;-81
2022/05/25 15:44:27;;;;;;;2.78;1.90;;;;;;;23.53;47.85;99589.41;7710139;32;41159;-78
2022/05/25 15:48:54;;;;;;;1.87;1.10;;;;;;;23.48;47.65;99564.63;7710568;32;37715;-79
2022/05/25 15:53:11;;;;;;;1.52;1.30;;;;;;;22.86;48.18;99573.53;7709655;32;37961;-80
2022/05/25 15:57:27;;;;;;;4.82;1.60;;;;;;;23.02;47.82;99594.94;7711255;32;39376;-80
2022/05/25 16:01:45;;;;;;;2.42;1.62;;;;;;;23.29;47.29;99607.13;7711147;32;41138;-79
2022/05/25 16:06:03;;;;;;;2.53;1.30;;;;;;;22.45;49.66;99605.44;7711060;32;37169;-80
2022/05/25 16:10:20;;;;;;;2.37;1.40;;;;;;;22.78;48.50;99598.72;7711167;32;36943;-80
2022/05/25 16:14:38;;;;;;;4.10;1.30;;;;;;;22.66;50.00;99574.59;7710853;32;39538;-79
2022/05/25 16:18:55;;;;;;;1.33;1.23;;;;;;;22.74;49.13;99542.28;7710875;32;41697;-80
2022/05/25 16:23:11;;;;;;;1.65;1.20;;;;;;;23.24;47.68;99535.13;7707205;32;37945;-79
2022/05/25 16:27:27;;;;;;;11.75;1.77;;;;;;;23.11;47.07;99567.81;7687581;32;36816;-80
2022/05/25 16:31:44;;;;;;;3.10;1.87;;;;;;;23.34;47.64;99581.81;7700894;32;39131;-81
2022/05/25 16:36:00;;;;;;;2.20;1.40;;;;;;;23.07;48.70;99605.81;7705326;32;40704;-80
2022/05/25 16:40:17;;;;;;;1.20;1.10;;;;;;;23.06;48.19;99605.03;7701972;32;38692;-79
2022/05/25 16:44:36;;;;;;;1.33;1.20;;;;;;;23.19;48.25;99571.53;7692958;32;37723;-81
2022/05/25 16:48:52;;;;;;;1.30;1.20;;;;;;;23.00;48.30;99600.06;7683519;32;39368;-80
2022/05/25 16:53:09;;;;;;;1.55;1.10;;;;;;;22.79;48.78;99620.59;7684285;32;39882;-79
2022/05/25 16:57:26;;;;;;;8.23;1.90;;;;;;;22.85;49.22;99632.25;7684275;32;38731;-80
2022/05/25 17:01:42;;;;;;;2.65;1.50;;;;;;;22.61;49.86;99642.37;7684027;32;37771;-79
2022/05/25 17:05:58;;;;;;;4.07;1.50;;;;;;;22.44;50.51;99646.28;7704854;32;39339;-80
2022/05/25 17:10:15;;;;;;;1.30;1.20;;;;;;;22.40;51.21;99650.91;7710555;32;39871;-82
2022/05/25 17:14:31;;;;;;;1.20;1.10;;;;;;;21.84;52.15;99667.56;7708841;32;38693;-80
2022/05/25 17:23:22;;;;;;;2.60;1.60;;;;;;;21.25;53.79;99691.84;7707382;32;39301;-81
2022/05/25 17:27:39;;;;;;;2.45;1.70;;;;;;;21.26;54.42;99710.06;7682939;32;39948;-80
2022/05/25 17:31:55;;;;;;;3.62;1.50;;;;;;;21.10;54.60;99709.16;7692641;32;37431;-82
2022/05/25 17:45:36;;;;;;;2.78;1.67;;;;;;;20.59;56.54;99723.19;7709653;32;40773;-79
2022/05/25 17:49:52;;;;;;;4.18;1.70;;;;;;;20.32;57.64;99743.97;7695498;32;37983;-80
2022/05/25 17:54:10;;;;;;;1.73;1.40;;;;;;;20.32;57.65;99738.44;7701627;32;37019;-80
2022/05/25 17:58:27;;;;;;;3.00;1.70;;;;;;;20.39;58.25;99735.94;7710437;32;39894;-80
2022/05/25 18:02:44;;;;;;;2.37;1.60;;;;;;;19.94;59.31;99734.66;7712426;32;39732;-80
2022/05/25 18:07:04;;;;;;;2.75;2.10;;;;;;;19.20;62.99;99733.22;7712848;32;38642;-81
2022/05/25 18:11:20;;;;;;;5.43;2.50;;;;;;;19.32;62.42;99723.09;7710349;32;36746;-81
2022/05/25 18:15:43;;;;;;;5.95;2.35;;;;;;;19.20;62.62;99716.66;7695600;32;39263;-80
2022/05/25 18:19:59;;;;;;;3.83;2.78;;;;;;;19.29;62.39;99720.19;7695483;32;39899;-79
2022/05/25 18:24:16;;;;;;;3.40;2.22;;;;;;;19.37;62.28;99730.41;7712770;32;37940;-77
2022/05/25 18:28:32;;;;;;;4.78;2.60;;;;;;;19.57;61.73;99708.66;7712817;32;37234;-77
2022/05/25 18:32:49;;;;;;;5.05;2.85;;;;;;;19.37;62.38;99715.75;7689675;32;40824;-76
2022/05/25 18:37:08;;;;;;;4.82;2.50;;;;;;;19.14;63.28;99719.59;7709519;32;39833;-77
2022/05/25 18:41:25;;;;;;;3.92;2.80;;;;;;;19.10;63.37;99721.38;7712420;32;38921;-77
2022/05/25 18:45:41;;;;;;;3.78;3.05;;;;;;;19.01;63.70;99717.84;7710818;32;38001;-76
2022/05/25 18:49:57;;;;;;;4.62;3.15;;;;;;;18.61;64.59;99734.66;7711950;32;39986;-77
2022/05/25 18:54:16;;;;;;;8.65;3.80;;;;;;;18.54;65.24;99740.66;7710896;32;38220;-76
2022/05/25 18:58:33;;;;;;;4.93;3.62;;;;;;;18.01;67.61;99733.53;7710212;32;38602;-77
2022/05/25 19:02:49;;;;;;;7.45;4.10;;;;;;;18.22;66.97;99739.22;7710191;32;37047;-76
2022/05/25 19:07:06;;;;;;;6.80;4.40;;;;;;;17.98;66.82;99754.28;7708850;32;39214;-75
2022/05/25 19:11:23;;;;;;;8.07;4.55;;;;;;;17.62;67.95;99771.84;7708393;32;40000;-76
2022/05/25 19:15:43;;;;;;;5.80;3.87;;;;;;;18.27;65.58;99783.19;7709424;32;38382;-76
2022/05/25 19:19:59;;;;;;;6.20;3.75;;;;;;;17.82;66.68;99791.69;7708245;32;36841;-77
2022/05/25 19:24:19;;;;;;;5.55;3.78;;;;;;;17.65;66.43;99787.75;7709881;32;40030;-77
2022/05/25 19:28:37;;;;;;;4.40;3.08;;;;;;;17.88;64.57;99795.94;7710035;32;40014;-77
2022/05/25 19:32:53;;;;;;;4.47;2.95;;;;;;;17.51;64.92;99820.13;7708038;32;38350;-77
2022/05/25 19:37:10;;;;;;;4.97;3.37;;;;;;;17.33;65.50;99829.44;7707923;32;37656;-77
2022/05/25 19:41:28;;;;;;;6.37;3.60;;;;;;;17.52;65.17;99824.50;7708368;32;39277;-77
2022/05/25 19:45:48;;;;;;;5.12;3.10;;;;;;;17.45;65.27;99815.88;7700774;32;38747;-77
2022/05/25 19:54:42;;;;;;;6.60;3.50;;;;;;;17.46;65.61;99817.50;7708466;32;37061;-76
2022/05/25 19:58:59;;;;;;;5.40;3.70;;;;;;;17.47;65.54;99808.09;7709437;32;40058;-77
2022/05/25 20:03:15;;;;;;;6.95;4.30;;;;;;;17.37;66.11;99819.41;7710993;32;40796;-77
2022/05/25 20:07:32;;;;;;;7.07;4.40;;;;;;;17.37;66.34;99808.41;7709821;32;37995;-75
2022/05/25 20:11:48;;;;;;;6.20;3.80;;;;;;;17.10;66.68;99806.62;7709270;32;38032;-77
2022/05/25 20:16:08;;;;;;;10.15;6.10;;;;;;;17.68;64.76;99821.31;7707725;32;39531;-77
2022/05/25 20:20:24;;;;;;;4.75;3.30;;;;;;;17.55;65.33;99839.59;7706543;32;39903;-76
2022/05/25 20:24:41;;;;;;;4.68;3.35;;;;;;;17.43;65.76;99840.97;7706960;32;37822;-76
2022/05/25 20:28:57;;;;;;;5.50;3.00;;;;;;;17.46;65.28;99834.84;7707816;32;37780;-77
2022/05/25 20:33:15;;;;;;;4.93;3.12;;;;;;;17.54;64.28;99849.81;7708124;32;40216;-78
2022/05/25 20:37:31;;;;;;;4.07;2.70;;;;;;;17.37;64.41;99856.03;7708892;32;40803;-77
2022/05/25 20:41:50;;;;;;;4.75;2.65;;;;;;;17.14;65.38;99859.94;7708604;32;37884;-75
2022/05/25 20:46:07;;;;;;;4.87;3.40;;;;;;;17.18;65.36;99861.75;7707252;32;36991;-78
2022/05/25 20:50:24;;;;;;;6.32;2.58;;;;;;;16.60;66.89;99874.41;7708893;32;38991;-77
2022/05/25 20:54:40;;;;;;;3.47;2.70;;;;;;;16.63;66.96;99887.53;7708486;32;40905;-77
2022/05/25 20:58:57;;;;;;;2.85;2.30;;;;;;;16.24;68.90;99899.12;7708178;32;37807;-76
2022/05/25 21:03:16;;;;;;;3.62;2.53;;;;;;;16.70;66.79;99889.88;7708834;32;36542;-77
2022/05/25 21:07:32;;;;;;;8.68;3.10;;;;;;;16.50;66.68;99893.87;7706880;32;39892;-76
2022/05/25 21:11:49;;;;;;;5.97;2.70;;;;;;;16.71;65.80;99897.00;7708546;32;40717;-77
2022/05/25 21:16:05;;;;;;;3.33;2.60;;;;;;;16.55;65.99;99896.53;7707727;32;37897;-77
2022/05/25 21:20:22;;;;;;;3.53;2.58;;;;;;;16.65;65.61;99898.25;7708385;32;36931;-77
2022/05/25 21:24:38;;;;;;;3.25;2.37;;;;;;;16.17;66.54;99904.22;7708360;32;40115;-77